createdAt,value
2018-11-21T00:01:34.426Z,35.43
2018-11-21T00:04:02.947Z,34.90
2018-11-21T00:06:31.456Z,40.50
2018-11-21T00:09:00.093Z,39.63
2018-11-21T00:11:28.636Z,38.28
2018-11-21T00:13:57.139Z,37.83
2018-11-21T00:16:25.676Z,32.40
2018-11-21T00:19:00.520Z,39.05
2018-11-21T00:21:22.839Z,37.38
2018-11-21T00:23:51.411Z,39.73
2018-11-21T00:26:19.934Z,43.13
2018-11-21T00:28:48.445Z,50.95
2018-11-21T00:31:19.262Z,44.60
2018-11-21T00:33:47.749Z,48.92
2018-11-21T00:36:16.249Z,41.10
2018-11-21T00:38:44.865Z,38.13
2018-11-21T00:41:13.365Z,38.48
2018-11-21T00:43:41.908Z,38.20
2018-11-21T00:46:10.430Z,33.63
2018-11-21T00:48:41.644Z,33.13
2018-11-21T00:51:10.495Z,33.33
2018-11-21T00:53:39.071Z,41.23
2018-11-21T00:56:07.570Z,39.15
2018-11-21T00:58:36.075Z,39.75
2018-11-21T01:01:05.097Z,29.40
2018-11-21T01:03:33.724Z,39.03
2018-11-21T01:06:02.252Z,32.83
2018-11-21T01:08:30.777Z,32.95
2018-11-21T01:10:59.298Z,31.40
2018-11-21T01:13:27.838Z,31.42
2018-11-21T01:15:56.329Z,32.17
2018-11-21T01:18:24.953Z,25.00
2018-11-21T01:20:53.474Z,33.78
2018-11-21T01:23:21.991Z,35.95
2018-11-21T01:25:50.556Z,26.55
2018-11-21T01:28:19.102Z,32.20
2018-11-21T01:30:47.698Z,29.75
2018-11-21T01:33:16.209Z,29.35
2018-11-21T01:35:44.721Z,36.00
2018-11-21T01:38:13.240Z,32.65
2018-11-21T01:40:44.304Z,32.50
2018-11-21T01:43:12.806Z,31.62
2018-11-21T01:45:41.320Z,32.88
2018-11-21T01:48:09.829Z,29.80
2018-11-21T01:50:38.465Z,36.90
2018-11-21T01:53:06.964Z,34.40
2018-11-21T01:55:35.517Z,35.92
2018-11-21T01:58:04.116Z,35.30
2018-11-21T02:00:32.613Z,38.13
2018-11-21T02:03:01.169Z,34.80
2018-11-21T02:05:29.692Z,38.53
2018-11-21T02:07:58.199Z,36.63
2018-11-21T02:10:26.736Z,35.58
2018-11-21T02:12:55.251Z,43.65
2018-11-21T02:15:23.769Z,34.73
2018-11-21T02:17:52.321Z,41.33
2018-11-21T02:20:20.813Z,40.15
2018-11-21T02:22:49.364Z,47.60
2018-11-21T02:25:17.906Z,48.58
2018-11-21T02:27:46.410Z,47.48
2018-11-21T02:30:14.944Z,48.68
2018-11-21T02:32:45.852Z,40.20
2018-11-21T02:35:14.355Z,42.05
2018-11-21T02:37:42.884Z,39.10
2018-11-21T02:40:11.415Z,38.20
2018-11-21T02:42:39.938Z,36.38
2018-11-21T02:45:08.472Z,39.25
2018-11-21T02:47:36.974Z,37.93
2018-11-21T02:50:06.069Z,39.08
2018-11-21T02:52:34.584Z,42.67
2018-11-21T02:55:03.098Z,51.10
2018-11-21T02:57:32.961Z,46.40
2018-11-21T03:00:10.594Z,50.05
2018-11-21T03:02:39.130Z,51.10
2018-11-21T03:05:07.656Z,49.63
2018-11-21T03:07:36.208Z,41.88
2018-11-21T03:10:05.662Z,50.67
2018-11-21T03:12:34.221Z,49.60
2018-11-21T03:15:02.734Z,52.03
2018-11-21T03:17:31.249Z,51.75
2018-11-21T03:19:59.752Z,51.05
2018-11-21T03:22:28.273Z,49.80
2018-11-21T03:24:56.773Z,51.08
2018-11-21T03:27:25.303Z,55.23
2018-11-21T03:29:53.867Z,54.83
2018-11-21T03:32:22.392Z,62.00
2018-11-21T03:34:50.872Z,53.70
2018-11-21T03:37:19.388Z,49.98
2018-11-21T03:39:47.977Z,55.85
2018-11-21T03:42:16.480Z,61.63
2018-11-21T03:44:45.116Z,56.68
2018-11-21T03:47:13.610Z,61.73
2018-11-21T03:49:42.440Z,54.93
2018-11-21T03:52:11.312Z,64.03
2018-11-21T03:54:39.943Z,63.40
2018-11-21T03:57:08.427Z,60.43
2018-11-21T03:59:36.942Z,65.40
2018-11-21T04:02:05.668Z,65.05
2018-11-21T04:04:34.190Z,62.08
2018-11-21T04:07:02.709Z,66.50
2018-11-21T04:09:31.223Z,59.83
2018-11-21T04:11:59.758Z,56.88
2018-11-21T04:14:28.396Z,61.85
2018-11-21T04:16:56.910Z,60.50
2018-11-21T04:19:25.417Z,67.03
2018-11-21T04:21:53.993Z,55.28
2018-11-21T04:24:22.505Z,70.65
2018-11-21T04:26:51.065Z,61.00
2018-11-21T04:29:19.554Z,58.60
2018-11-21T04:31:48.118Z,54.08
2018-11-21T04:34:16.647Z,54.90
2018-11-21T04:36:45.182Z,53.52
2018-11-21T04:39:13.668Z,56.45
2018-11-21T04:41:42.194Z,64.58
2018-11-21T04:44:10.690Z,60.23
2018-11-21T04:46:39.214Z,56.65
2018-11-21T04:49:07.754Z,61.02
2018-11-21T04:51:36.278Z,54.88
2018-11-21T04:54:05.391Z,66.70
2018-11-21T04:56:33.888Z,51.45
2018-11-21T04:59:02.400Z,58.58
2018-11-21T05:01:30.987Z,60.52
2018-11-21T05:03:59.501Z,58.50
2018-11-21T05:06:28.055Z,57.98
2018-11-21T05:08:56.593Z,61.63
2018-11-21T05:11:25.122Z,59.67
2018-11-21T05:13:53.662Z,57.40
2018-11-21T05:16:22.225Z,61.35
2018-11-21T05:18:50.789Z,60.52
2018-11-21T05:21:19.296Z,60.63
2018-11-21T05:23:47.827Z,58.40
2018-11-21T05:26:16.330Z,53.20
2018-11-21T05:28:44.844Z,54.20
2018-11-21T05:31:13.337Z,51.18
2018-11-21T05:33:41.877Z,61.58
2018-11-21T05:36:10.387Z,60.17
2018-11-21T05:38:38.952Z,62.10
2018-11-21T05:41:07.457Z,62.43
2018-11-21T05:43:36.046Z,74.92
2018-11-21T05:46:04.929Z,67.58
2018-11-21T05:48:33.430Z,63.48
2018-11-21T05:51:01.981Z,58.25
2018-11-21T05:53:30.488Z,60.75
2018-11-21T05:55:59.031Z,67.97
2018-11-21T05:58:27.517Z,67.12
2018-11-21T06:00:56.159Z,62.67
2018-11-21T06:03:24.638Z,88.30
2018-11-21T06:05:53.163Z,55.67
2018-11-21T06:08:21.692Z,65.72
2018-11-21T06:10:50.216Z,65.60
2018-11-21T06:13:18.742Z,60.63
2018-11-21T06:15:47.290Z,69.50
2018-11-21T06:18:15.806Z,67.22
2018-11-21T06:20:44.446Z,55.95
2018-11-21T06:23:12.990Z,67.85
2018-11-21T06:25:41.547Z,62.08
2018-11-21T06:28:10.053Z,59.00
2018-11-21T06:30:38.613Z,57.60
2018-11-21T06:33:07.109Z,73.83
2018-11-21T06:35:35.636Z,60.70
2018-11-21T06:38:04.176Z,63.95
2018-11-21T06:40:32.723Z,61.63
2018-11-21T06:43:01.276Z,67.45
2018-11-21T06:45:30.175Z,61.28
2018-11-21T06:47:58.725Z,65.52
2018-11-21T06:50:27.247Z,73.22
2018-11-21T06:52:57.037Z,86.05
2018-11-21T06:55:25.532Z,74.07
2018-11-21T06:57:54.125Z,71.00
2018-11-21T07:00:22.774Z,67.72
2018-11-21T07:02:51.317Z,77.25
2018-11-21T07:05:19.837Z,72.58
2018-11-21T07:07:48.374Z,73.00
2018-11-21T07:10:17.238Z,89.75
2018-11-21T07:12:46.137Z,73.33
2018-11-21T07:15:14.985Z,71.42
2018-11-21T07:17:43.530Z,85.35
2018-11-21T07:20:13.219Z,81.53
2018-11-21T07:22:42.282Z,70.90
2018-11-21T07:25:18.525Z,70.78
2018-11-21T07:27:47.071Z,70.57
2018-11-21T07:30:16.465Z,76.22
2018-11-21T07:32:44.968Z,63.30
2018-11-21T07:35:17.731Z,64.17
2018-11-21T07:37:42.587Z,59.42
2018-11-21T07:40:12.629Z,62.03
2018-11-21T07:42:41.314Z,58.85
2018-11-21T07:45:11.731Z,66.55
2018-11-21T07:47:40.797Z,52.65
2018-11-21T07:50:14.633Z,70.92
2018-11-21T07:52:43.397Z,56.42
2018-11-21T07:55:12.506Z,60.60
2018-11-21T07:57:42.508Z,61.88
2018-11-21T08:00:56.986Z,58.50
2018-11-21T08:03:27.077Z,60.38
2018-11-21T08:06:07.409Z,55.43
2018-11-21T08:09:13.561Z,63.70
2018-11-21T08:12:07.494Z,58.17
2018-11-21T08:14:55.166Z,64.82
2018-11-21T08:17:41.209Z,61.20
2018-11-21T08:20:31.753Z,55.92
2018-11-21T08:23:22.184Z,64.22
2018-11-21T08:26:25.030Z,59.50
2018-11-21T08:28:53.585Z,62.38
2018-11-21T08:31:22.084Z,68.80
2018-11-21T08:33:50.620Z,63.35
2018-11-21T08:36:19.129Z,57.03
2018-11-21T08:38:47.689Z,61.63
2018-11-21T08:41:19.076Z,61.77
2018-11-21T08:43:47.611Z,58.33
2018-11-21T08:46:16.115Z,56.88
2018-11-21T08:48:44.737Z,50.92
2018-11-21T08:51:13.283Z,60.28
2018-11-21T08:53:41.849Z,57.13
2018-11-21T08:56:10.475Z,65.85
2018-11-21T08:58:39.024Z,60.80
2018-11-21T09:01:07.534Z,54.80
2018-11-21T09:03:36.094Z,62.83
2018-11-21T09:06:04.933Z,51.73
2018-11-21T09:08:33.544Z,53.17
2018-11-21T09:11:02.070Z,60.95
2018-11-21T09:13:30.609Z,55.80
2018-11-21T09:15:59.150Z,54.13
2018-11-21T09:18:27.673Z,56.18
2018-11-21T09:20:56.222Z,55.40
2018-11-21T09:23:24.736Z,55.50
2018-11-21T09:25:53.257Z,53.45
2018-11-21T09:28:21.778Z,54.23
2018-11-21T09:30:50.373Z,48.00
2018-11-21T09:33:18.932Z,47.75
2018-11-21T09:35:47.520Z,43.25
2018-11-21T09:38:16.022Z,53.75
2018-11-21T09:40:44.546Z,47.60
2018-11-21T09:43:13.084Z,55.73
2018-11-21T09:45:41.611Z,49.95
2018-11-21T09:48:10.157Z,57.15
2018-11-21T09:50:38.666Z,51.83
2018-11-21T09:53:07.207Z,54.03
2018-11-21T09:55:35.981Z,48.87
2018-11-21T09:58:04.282Z,49.95
2018-11-21T10:01:09.631Z,49.40
2018-11-21T10:03:39.186Z,52.30
2018-11-21T10:06:16.565Z,60.55
2018-11-21T10:08:49.362Z,66.47
2018-11-21T10:11:18.365Z,57.45
2018-11-21T10:13:46.920Z,49.40
2018-11-21T10:16:15.421Z,54.10
2018-11-21T10:18:45.341Z,52.90
2018-11-21T10:21:15.740Z,53.20
2018-11-21T10:23:45.191Z,53.13
2018-11-21T10:26:12.870Z,49.98
2018-11-21T10:28:41.819Z,52.23
2018-11-21T10:31:10.476Z,55.78
2018-11-21T10:33:38.987Z,52.08
2018-11-21T10:36:07.475Z,51.95
2018-11-21T10:38:36.073Z,51.25
2018-11-21T10:41:04.755Z,58.08
2018-11-21T10:43:34.237Z,52.10
2018-11-21T10:46:02.752Z,55.35
2018-11-21T10:48:31.292Z,53.60
2018-11-21T10:50:59.808Z,50.20
2018-11-21T10:53:28.392Z,52.10
2018-11-21T10:55:56.943Z,51.08
2018-11-21T10:58:25.466Z,52.80
2018-11-21T11:01:11.822Z,47.85
2018-11-21T11:03:59.457Z,52.10
2018-11-21T11:06:47.133Z,45.75
2018-11-21T11:09:40.911Z,53.33
2018-11-21T11:12:28.537Z,47.35
2018-11-21T11:15:14.516Z,49.33
2018-11-21T11:18:00.871Z,49.73
2018-11-21T11:21:00.720Z,54.55
2018-11-21T11:23:51.386Z,47.62
2018-11-21T11:26:42.074Z,52.00
2018-11-21T11:29:37.564Z,60.10
2018-11-21T11:32:25.210Z,65.20
2018-11-21T11:35:11.419Z,62.93
2018-11-21T11:37:52.478Z,63.90
2018-11-21T11:40:38.989Z,62.62
2018-11-21T11:43:25.191Z,66.47
2018-11-21T11:46:18.537Z,58.50
2018-11-21T11:49:04.928Z,64.07
2018-11-21T11:51:53.796Z,63.90
2018-11-21T11:54:41.425Z,59.77
2018-11-21T11:57:27.136Z,61.77
2018-11-21T12:00:13.511Z,61.75
2018-11-21T12:03:13.116Z,65.75
2018-11-21T12:06:09.585Z,65.47
2018-11-21T12:08:55.666Z,62.40
2018-11-21T12:11:48.916Z,73.07
2018-11-21T12:14:35.311Z,78.50
2018-11-21T12:17:28.681Z,60.63
2018-11-21T12:20:31.260Z,69.70
2018-11-21T12:23:18.990Z,72.75
2018-11-21T12:26:21.711Z,74.03
2018-11-21T12:29:08.091Z,67.10
2018-11-21T12:31:58.717Z,67.35
2018-11-21T12:34:46.197Z,65.42
2018-11-21T12:37:36.514Z,60.28
2018-11-21T12:40:31.108Z,68.22
2018-11-21T12:43:34.053Z,75.47
2018-11-21T12:46:20.456Z,74.05
2018-11-21T12:49:06.922Z,69.55
2018-11-21T12:51:57.369Z,82.85
2018-11-21T12:54:50.635Z,67.72
2018-11-21T12:57:36.707Z,69.82
2018-11-21T13:00:23.727Z,81.90
2018-11-21T13:02:59.058Z,80.07
2018-11-21T13:05:38.672Z,75.50
2018-11-21T13:08:38.355Z,77.82
2018-11-21T13:11:26.055Z,66.10
2018-11-21T13:14:16.327Z,87.30
2018-11-21T13:17:06.723Z,75.78
2018-11-21T13:19:52.912Z,78.12
2018-11-21T13:22:31.638Z,76.92
2018-11-21T13:25:15.809Z,76.72
2018-11-21T13:28:01.703Z,74.40
2018-11-21T13:30:51.025Z,75.80
2018-11-21T13:33:32.002Z,78.55
2018-11-21T13:36:12.183Z,75.95
2018-11-21T13:38:58.142Z,82.42
2018-11-21T13:41:40.951Z,83.17
2018-11-21T13:44:28.601Z,73.50
2018-11-21T13:47:14.497Z,71.72
2018-11-21T13:50:01.131Z,68.62
2018-11-21T13:52:48.797Z,73.65
2018-11-21T13:55:17.396Z,62.17
2018-11-21T13:57:46.297Z,61.35
2018-11-21T14:00:17.274Z,60.88
